createdAt,value
2019-05-28T00:02:31.919Z,14.70
2019-05-28T00:05:20.863Z,14.60
2019-05-28T00:08:27.230Z,14.70
2019-05-28T00:11:16.170Z,14.60
2019-05-28T00:14:04.947Z,14.50
2019-05-28T00:17:08.772Z,14.40
2019-05-28T00:19:57.542Z,14.30
2019-05-28T00:22:46.401Z,14.30
2019-05-28T00:25:37.414Z,14.20
2019-05-28T00:31:38.201Z,14.30
2019-05-28T00:34:44.706Z,14.20
2019-05-28T00:37:33.131Z,14.10
2019-05-28T00:40:24.045Z,14.00
2019-05-28T00:43:31.057Z,14.00
2019-05-28T00:46:19.529Z,13.90
2019-05-28T00:49:29.752Z,13.60
2019-05-28T00:52:18.654Z,13.70
2019-05-28T00:55:11.107Z,13.70
2019-05-28T00:58:22.674Z,13.80
2019-05-28T01:01:13.295Z,13.60
2019-05-28T01:04:38.996Z,13.60
2019-05-28T01:07:29.559Z,13.70
2019-05-28T01:10:17.248Z,13.70
2019-05-28T01:13:07.198Z,13.70
2019-05-28T01:16:01.668Z,13.80
2019-05-28T01:21:45.178Z,13.80
2019-05-28T01:24:47.333Z,13.80
2019-05-28T01:27:38.751Z,13.90
2019-05-28T01:30:27.280Z,14.00
2019-05-28T01:33:33.514Z,14.00
2019-05-28T01:36:22.203Z,13.90
2019-05-28T01:39:14.369Z,13.90
2019-05-28T01:42:06.368Z,13.90
2019-05-28T01:44:59.697Z,14.00
2019-05-28T01:48:09.058Z,14.20
2019-05-28T01:51:26.042Z,14.10
2019-05-28T01:54:14.666Z,14.10
2019-05-28T01:57:25.754Z,14.00
2019-05-28T02:00:15.030Z,14.00
2019-05-28T02:03:15.037Z,14.10
2019-05-28T02:09:56.870Z,14.20
2019-05-28T02:12:16.872Z,14.20
2019-05-28T02:15:07.708Z,14.30
2019-05-28T02:17:56.955Z,14.30
2019-05-28T02:20:45.528Z,14.40
2019-05-28T02:24:06.540Z,14.30
2019-05-28T02:27:23.142Z,14.30
2019-05-28T02:30:12.368Z,14.30
2019-05-28T02:33:14.125Z,14.20
2019-05-28T02:36:06.610Z,14.30
2019-05-28T02:39:21.643Z,14.20
2019-05-28T02:42:09.805Z,14.20
2019-05-28T02:45:04.123Z,14.10
2019-05-28T02:47:58.165Z,14.10
2019-05-28T02:51:08.863Z,14.10
2019-05-28T02:54:01.646Z,14.20
2019-05-28T02:57:15.659Z,14.20
2019-05-28T03:00:04.952Z,14.10
2019-05-28T03:03:23.362Z,14.00
2019-05-28T03:06:15.611Z,14.00
2019-05-28T03:09:27.139Z,14.00
2019-05-28T03:12:20.050Z,14.00
2019-05-28T03:15:14.829Z,14.00
2019-05-28T03:18:21.860Z,13.90
2019-05-28T03:21:17.287Z,13.80
2019-05-28T03:24:07.347Z,13.80
2019-05-28T03:27:13.120Z,13.70
2019-05-28T03:30:01.319Z,13.60
2019-05-28T03:33:28.251Z,13.50
2019-05-28T03:36:17.906Z,13.40
2019-05-28T03:39:08.400Z,13.30
2019-05-28T03:41:56.191Z,13.20
2019-05-28T03:44:44.097Z,13.30
2019-05-28T03:47:32.721Z,13.10
2019-05-28T03:50:20.610Z,13.10
2019-05-28T03:53:08.273Z,13.10
2019-05-28T03:55:55.830Z,13.00
2019-05-28T03:58:43.788Z,13.00
2019-05-28T04:01:31.483Z,12.80
2019-05-28T04:04:19.244Z,12.80
2019-05-28T04:07:06.679Z,12.80
2019-05-28T04:09:54.515Z,12.70
2019-05-28T04:12:42.356Z,12.70
2019-05-28T04:15:30.097Z,12.60
2019-05-28T04:18:18.162Z,12.70
2019-05-28T04:21:05.963Z,12.70
2019-05-28T04:23:54.013Z,12.60
2019-05-28T04:26:41.447Z,12.60
2019-05-28T04:29:28.961Z,12.60
2019-05-28T04:32:16.904Z,12.60
2019-05-28T04:35:05.691Z,12.60
2019-05-28T04:37:53.440Z,12.60
2019-05-28T04:40:40.856Z,12.60
2019-05-28T04:43:28.847Z,12.60
2019-05-28T04:46:16.548Z,12.60
2019-05-28T04:49:04.485Z,12.60
2019-05-28T04:51:52.565Z,12.70
2019-05-28T04:54:40.008Z,12.70
2019-05-28T04:57:28.252Z,12.70
2019-05-28T05:00:16.667Z,12.70
2019-05-28T05:03:04.678Z,12.70
2019-05-28T05:05:53.043Z,12.80
2019-05-28T05:08:41.195Z,12.80
2019-05-28T05:11:29.104Z,12.80
2019-05-28T05:14:17.623Z,12.80
2019-05-28T05:17:05.453Z,12.70
2019-05-28T05:19:53.486Z,12.70
2019-05-28T05:22:41.733Z,12.70
2019-05-28T05:25:29.146Z,12.60
2019-05-28T05:28:17.408Z,12.60
2019-05-28T05:31:05.178Z,12.60
2019-05-28T05:33:52.723Z,12.50
2019-05-28T05:36:40.171Z,12.70
2019-05-28T05:39:28.213Z,12.80
2019-05-28T05:42:16.159Z,12.90
2019-05-28T05:45:07.352Z,12.70
2019-05-28T05:47:53.463Z,12.60
2019-05-28T05:50:45.075Z,12.70
2019-05-28T05:53:31.070Z,12.70
2019-05-28T05:56:19.026Z,12.60
2019-05-28T05:59:06.895Z,12.70
2019-05-28T06:01:54.567Z,12.70
2019-05-28T06:04:42.439Z,12.70
2019-05-28T06:07:30.155Z,12.60
2019-05-28T06:10:18.209Z,12.70
2019-05-28T06:13:05.756Z,12.80
2019-05-28T06:15:53.963Z,12.90
2019-05-28T06:18:41.844Z,12.90
2019-05-28T06:21:29.487Z,12.90
2019-05-28T06:24:16.992Z,12.70
2019-05-28T06:27:05.526Z,12.60
2019-05-28T06:29:53.070Z,12.50
2019-05-28T06:32:40.884Z,12.60
2019-05-28T06:35:28.956Z,12.80
2019-05-28T06:38:16.832Z,12.70
2019-05-28T06:41:04.716Z,12.80
2019-05-28T06:43:52.847Z,12.60
2019-05-28T06:46:41.476Z,12.50
2019-05-28T06:49:29.444Z,12.50
2019-05-28T06:52:17.115Z,12.50
2019-05-28T06:55:05.068Z,12.40
2019-05-28T06:57:52.737Z,12.50
2019-05-28T07:00:40.557Z,12.50
2019-05-28T07:03:28.695Z,12.60
2019-05-28T07:06:16.516Z,12.80
2019-05-28T07:09:06.106Z,12.80
2019-05-28T07:11:54.001Z,12.70
2019-05-28T07:14:42.009Z,12.80
2019-05-28T07:17:30.034Z,13.00
2019-05-28T07:20:18.172Z,13.00
2019-05-28T07:23:05.967Z,12.90
2019-05-28T07:25:53.838Z,12.70
2019-05-28T07:28:41.792Z,12.70
2019-05-28T07:31:29.810Z,12.80
2019-05-28T07:34:30.455Z,12.70
2019-05-28T07:37:07.587Z,12.70
2019-05-28T07:39:55.303Z,12.70
2019-05-28T07:42:43.020Z,12.60
2019-05-28T07:45:30.625Z,12.50
2019-05-28T07:48:18.865Z,12.60
2019-05-28T07:51:06.925Z,12.60
2019-05-28T07:53:54.760Z,12.90
2019-05-28T07:56:42.691Z,12.90
2019-05-28T07:59:31.132Z,12.70
2019-05-28T08:02:19.063Z,12.80
2019-05-28T08:05:07.291Z,12.70
2019-05-28T08:07:55.511Z,12.80
2019-05-28T08:10:43.233Z,12.70
2019-05-28T08:13:40.024Z,12.60
2019-05-28T08:16:20.167Z,12.60
2019-05-28T08:19:08.953Z,12.60
2019-05-28T08:21:56.841Z,12.50
2019-05-28T08:24:44.896Z,12.50
2019-05-28T08:27:32.654Z,12.40
2019-05-28T08:30:20.547Z,12.60
2019-05-28T08:33:08.397Z,12.70
2019-05-28T08:35:56.590Z,12.70
2019-05-28T08:38:44.824Z,12.80
2019-05-28T08:41:32.833Z,12.60
2019-05-28T08:44:20.492Z,12.70
2019-05-28T08:47:08.747Z,12.80
2019-05-28T08:49:56.874Z,13.00
2019-05-28T08:52:44.646Z,13.00
2019-05-28T08:55:32.252Z,13.10
2019-05-28T08:58:20.612Z,13.60
2019-05-28T09:01:08.332Z,13.70
2019-05-28T09:03:56.055Z,14.00
2019-05-28T09:06:43.925Z,14.10
2019-05-28T09:09:31.798Z,14.10
2019-05-28T09:12:19.559Z,14.40
2019-05-28T09:15:07.250Z,14.10
2019-05-28T09:17:55.207Z,14.10
2019-05-28T09:20:43.032Z,14.40
2019-05-28T09:23:30.681Z,14.70
2019-05-28T09:26:18.789Z,14.90
2019-05-28T09:29:06.643Z,14.50
2019-05-28T09:31:54.062Z,13.80
2019-05-28T09:34:42.029Z,13.50
2019-05-28T09:37:29.420Z,13.30
2019-05-28T09:40:18.502Z,13.20
2019-05-28T09:43:06.925Z,13.30
2019-05-28T09:45:54.756Z,13.10
2019-05-28T09:48:42.602Z,12.60
2019-05-28T09:51:31.096Z,12.30
2019-05-28T09:54:19.428Z,12.40
2019-05-28T09:57:07.871Z,12.50
2019-05-28T09:59:55.810Z,12.70
2019-05-28T10:02:43.788Z,13.00
2019-05-28T10:05:32.475Z,13.20
2019-05-28T10:08:20.852Z,13.30
2019-05-28T10:11:08.580Z,13.40
2019-05-28T10:13:56.474Z,13.70
2019-05-28T10:16:44.492Z,13.80
2019-05-28T10:19:32.083Z,13.70
2019-05-28T10:22:19.842Z,13.70
2019-05-28T10:25:08.056Z,14.10
2019-05-28T10:28:00.929Z,14.40
2019-05-28T10:30:45.926Z,14.70
2019-05-28T10:33:33.770Z,14.40
2019-05-28T10:36:34.975Z,14.30
2019-05-28T10:39:10.867Z,14.30
2019-05-28T10:41:58.747Z,14.30
2019-05-28T10:44:46.842Z,14.50
2019-05-28T10:47:34.531Z,14.70
2019-05-28T10:50:22.471Z,14.60
2019-05-28T10:53:10.516Z,14.50
2019-05-28T10:55:58.344Z,14.40
2019-05-28T10:58:46.330Z,14.40
2019-05-28T11:01:35.033Z,14.50
2019-05-28T11:04:23.251Z,14.60
2019-05-28T11:07:11.960Z,14.60
2019-05-28T11:09:59.657Z,14.70
2019-05-28T11:12:47.413Z,14.80
2019-05-28T11:15:36.237Z,14.90
2019-05-28T11:18:24.331Z,14.90
2019-05-28T11:21:12.278Z,15.10
2019-05-28T11:23:59.960Z,15.40
2019-05-28T11:26:47.895Z,15.40
2019-05-28T11:29:35.743Z,15.60
2019-05-28T11:32:23.176Z,15.50
2019-05-28T11:35:12.589Z,15.70
2019-05-28T11:38:00.763Z,15.90
2019-05-28T11:40:49.311Z,16.00
2019-05-28T11:43:37.500Z,15.50
2019-05-28T11:46:25.445Z,15.70
2019-05-28T11:49:13.568Z,15.80
2019-05-28T11:52:01.710Z,15.90
2019-05-28T11:54:50.050Z,15.90
2019-05-28T11:57:37.769Z,16.20
2019-05-28T12:00:27.142Z,16.30
2019-05-28T12:03:15.668Z,16.50
2019-05-28T12:06:03.597Z,16.70
2019-05-28T12:08:51.395Z,16.40
2019-05-28T12:11:39.748Z,16.20
2019-05-28T12:14:27.964Z,16.60
2019-05-28T12:17:16.065Z,17.00
2019-05-28T12:20:05.168Z,16.90
2019-05-28T12:23:09.805Z,17.00
2019-05-28T12:25:43.611Z,17.00
2019-05-28T12:28:37.398Z,17.10
2019-05-28T12:31:21.332Z,16.60
2019-05-28T12:34:09.347Z,17.00
2019-05-28T12:36:57.355Z,17.20
2019-05-28T12:39:45.451Z,17.80
2019-05-28T12:42:33.829Z,17.60
2019-05-28T12:45:35.152Z,17.40
2019-05-28T12:48:13.206Z,17.50
2019-05-28T12:51:02.304Z,17.70
2019-05-28T12:53:51.579Z,17.90
2019-05-28T12:56:39.982Z,17.90
2019-05-28T12:59:28.121Z,18.00
2019-05-28T13:02:15.819Z,17.80
2019-05-28T13:05:03.826Z,17.90
2019-05-28T13:08:07.535Z,17.90
2019-05-28T13:10:41.287Z,18.50
2019-05-28T13:13:29.334Z,18.10
2019-05-28T13:16:17.101Z,17.80
2019-05-28T13:19:05.045Z,18.70
2019-05-28T13:21:53.320Z,18.40
2019-05-28T13:24:40.741Z,18.20
2019-05-28T13:27:28.895Z,18.30
2019-05-28T13:30:17.183Z,19.00
2019-05-28T13:33:05.434Z,19.10
2019-05-28T13:35:53.308Z,17.70
2019-05-28T13:38:42.816Z,18.40
2019-05-28T13:41:30.716Z,18.20
2019-05-28T13:44:18.618Z,19.20
2019-05-28T13:47:06.379Z,19.10
2019-05-28T13:49:54.248Z,18.40
2019-05-28T13:52:42.007Z,18.90
2019-05-28T13:55:30.239Z,19.40
2019-05-28T13:58:17.816Z,19.10
2019-05-28T14:01:05.948Z,18.20
2019-05-28T14:03:54.401Z,18.20
2019-05-28T14:06:44.487Z,18.70
2019-05-28T14:09:32.104Z,19.00
2019-05-28T14:12:20.261Z,19.30
2019-05-28T14:15:09.631Z,19.10
2019-05-28T14:17:57.832Z,20.20
2019-05-28T14:20:45.539Z,20.10
2019-05-28T14:23:33.603Z,19.60
2019-05-28T14:26:21.650Z,19.20
2019-05-28T14:29:09.823Z,18.50
2019-05-28T14:31:57.850Z,18.10
2019-05-28T14:34:46.149Z,17.90
2019-05-28T14:37:33.792Z,17.70
2019-05-28T14:40:24.493Z,17.90
2019-05-28T14:43:11.461Z,17.50
2019-05-28T14:45:59.755Z,17.20
2019-05-28T14:48:48.294Z,17.20
2019-05-28T14:51:36.137Z,17.00
2019-05-28T14:54:23.666Z,16.60
2019-05-28T14:57:11.684Z,16.30
2019-05-28T14:59:59.502Z,15.90
2019-05-28T15:02:47.294Z,15.10
2019-05-28T15:05:35.176Z,14.70
2019-05-28T15:08:23.038Z,14.50
2019-05-28T15:11:10.827Z,14.40
2019-05-28T15:13:59.644Z,14.50
2019-05-28T15:16:47.425Z,14.50
2019-05-28T15:19:35.287Z,14.60
2019-05-28T15:22:22.688Z,14.90
2019-05-28T15:25:10.819Z,15.40
2019-05-28T15:27:58.391Z,15.70
2019-05-28T15:30:46.552Z,15.40
2019-05-28T15:33:34.453Z,15.60
2019-05-28T15:36:22.061Z,16.00
2019-05-28T15:39:09.971Z,16.00
2019-05-28T15:41:57.694Z,16.20
2019-05-28T15:44:45.330Z,16.70
2019-05-28T15:47:33.229Z,16.90
2019-05-28T15:50:21.242Z,17.40
2019-05-28T15:53:08.917Z,17.50
2019-05-28T15:55:56.550Z,17.50
2019-05-28T15:58:43.960Z,17.80
2019-05-28T16:01:32.109Z,17.70
2019-05-28T16:04:19.958Z,18.50
2019-05-28T16:07:08.048Z,18.90
2019-05-28T16:09:57.068Z,18.90
2019-05-28T16:12:45.095Z,20.10
2019-05-28T16:15:32.936Z,19.80
2019-05-28T16:18:20.863Z,19.30
2019-05-28T16:21:08.946Z,18.70
2019-05-28T16:23:56.730Z,17.90
2019-05-28T16:26:44.455Z,17.30
2019-05-28T16:29:32.457Z,17.90
2019-05-28T16:32:24.930Z,18.60
2019-05-28T16:35:10.860Z,18.40
2019-05-28T16:37:58.582Z,18.30
2019-05-28T16:40:46.608Z,18.00
2019-05-28T16:43:34.269Z,17.00
2019-05-28T16:46:22.301Z,17.00
2019-05-28T16:49:10.431Z,17.30
2019-05-28T16:51:58.791Z,17.60
2019-05-28T16:54:46.711Z,17.50
2019-05-28T16:57:34.376Z,17.40
2019-05-28T17:00:22.442Z,17.20
2019-05-28T17:03:10.786Z,17.40
2019-05-28T17:05:58.823Z,17.70
2019-05-28T17:08:46.745Z,17.60
2019-05-28T17:11:34.296Z,17.20
2019-05-28T17:14:26.362Z,17.00
2019-05-28T17:17:11.764Z,16.80
2019-05-28T17:19:59.585Z,16.70
2019-05-28T17:22:47.394Z,16.70
2019-05-28T17:25:35.625Z,16.60
2019-05-28T17:28:23.406Z,16.40
2019-05-28T17:31:11.313Z,16.20
2019-05-28T17:33:59.307Z,16.10
2019-05-28T17:36:47.444Z,16.10
2019-05-28T17:39:35.536Z,16.00
2019-05-28T17:42:23.632Z,16.00
2019-05-28T17:45:11.769Z,16.00
2019-05-28T17:47:59.300Z,15.50
2019-05-28T17:50:47.395Z,15.10
2019-05-28T17:53:35.638Z,14.80
2019-05-28T17:56:23.398Z,14.30
2019-05-28T17:59:11.380Z,14.10
2019-05-28T18:01:58.893Z,14.20
2019-05-28T18:04:46.701Z,14.10
2019-05-28T18:07:34.436Z,13.90
2019-05-28T18:10:22.332Z,13.90
2019-05-28T18:13:10.061Z,13.80
2019-05-28T18:15:58.306Z,13.90
2019-05-28T18:18:46.152Z,13.80
2019-05-28T18:21:33.575Z,13.80
2019-05-28T18:24:21.352Z,13.60
2019-05-28T18:27:09.354Z,13.70
2019-05-28T18:29:56.755Z,13.90
2019-05-28T18:32:44.209Z,13.80
2019-05-28T18:35:31.734Z,13.50
2019-05-28T18:38:19.103Z,13.70
2019-05-28T18:41:20.676Z,13.40
2019-05-28T18:43:57.327Z,13.50
2019-05-28T18:46:45.050Z,13.40
2019-05-28T18:49:32.480Z,13.50
2019-05-28T18:52:20.440Z,13.20
2019-05-28T18:55:08.339Z,13.10
2019-05-28T18:57:56.028Z,13.20
2019-05-28T19:00:43.939Z,13.40
2019-05-28T19:03:32.821Z,13.40
2019-05-28T19:06:20.560Z,13.20
2019-05-28T19:09:11.457Z,13.00
2019-05-28T19:12:02.205Z,13.00
2019-05-28T19:14:49.995Z,12.80
2019-05-28T19:17:37.840Z,12.80
2019-05-28T19:20:26.097Z,12.70
2019-05-28T19:23:14.155Z,12.80
2019-05-28T19:26:02.336Z,12.60
2019-05-28T19:28:50.977Z,12.70
2019-05-28T19:31:39.502Z,12.70
2019-05-28T19:34:27.751Z,12.70
2019-05-28T19:37:15.407Z,12.60
2019-05-28T19:40:03.430Z,12.60
2019-05-28T19:42:51.704Z,12.60
2019-05-28T19:45:39.776Z,12.60
2019-05-28T19:48:27.273Z,12.60
2019-05-28T19:51:14.620Z,12.60
2019-05-28T19:54:02.920Z,12.50
2019-05-28T19:56:50.961Z,12.50
2019-05-28T19:59:38.991Z,12.50
2019-05-28T20:02:27.010Z,12.50
2019-05-28T20:05:15.280Z,12.50
2019-05-28T20:08:03.147Z,12.40
2019-05-28T20:10:50.935Z,12.40
2019-05-28T20:13:38.662Z,12.30
2019-05-28T20:16:26.513Z,12.20
2019-05-28T20:19:14.480Z,12.30
2019-05-28T20:22:02.409Z,12.30
2019-05-28T20:24:50.231Z,12.30
2019-05-28T20:27:38.591Z,12.40
2019-05-28T20:30:27.014Z,12.40
2019-05-28T20:33:14.456Z,12.30
2019-05-28T20:36:01.998Z,12.30
2019-05-28T20:38:50.030Z,12.40
2019-05-28T20:41:37.986Z,12.50
2019-05-28T20:44:25.911Z,12.40
2019-05-28T20:47:13.741Z,12.40
2019-05-28T20:50:04.370Z,12.30
2019-05-28T20:52:51.324Z,12.30
2019-05-28T20:55:39.096Z,12.40
2019-05-28T20:58:39.387Z,12.30
2019-05-28T21:01:16.679Z,12.30
2019-05-28T21:04:04.547Z,12.30
2019-05-28T21:06:52.151Z,12.30
2019-05-28T21:09:39.988Z,12.30
2019-05-28T21:12:42.804Z,12.30
2019-05-28T21:15:18.119Z,12.40
2019-05-28T21:18:06.338Z,12.40
2019-05-28T21:20:55.525Z,12.50
2019-05-28T21:23:43.337Z,12.40
2019-05-28T21:26:31.127Z,12.30
2019-05-28T21:29:19.294Z,12.40
2019-05-28T21:32:06.787Z,12.40
2019-05-28T21:34:57.573Z,12.40
2019-05-28T21:37:44.112Z,12.30
2019-05-28T21:40:31.909Z,12.20
2019-05-28T21:43:19.531Z,12.30
2019-05-28T21:46:06.948Z,12.20
2019-05-28T21:48:54.687Z,12.30
2019-05-28T21:51:42.449Z,12.20
2019-05-28T21:54:29.932Z,12.20
2019-05-28T21:57:18.706Z,12.20
2019-05-28T22:00:14.355Z,12.20
2019-05-28T22:03:02.685Z,12.10
2019-05-28T22:05:50.632Z,12.10
2019-05-28T22:08:38.586Z,12.10
2019-05-28T22:11:26.917Z,12.00
2019-05-28T22:14:14.917Z,12.10
2019-05-28T22:17:04.132Z,12.10
2019-05-28T22:19:52.741Z,12.00
2019-05-28T22:22:41.067Z,12.10
2019-05-28T22:25:28.806Z,11.90
2019-05-28T22:28:17.100Z,11.80
2019-05-28T22:31:05.420Z,11.60
2019-05-28T22:33:53.605Z,11.40
2019-05-28T22:36:41.607Z,11.30
2019-05-28T22:39:29.799Z,11.40
2019-05-28T22:42:18.168Z,11.40
2019-05-28T22:45:07.117Z,11.40
2019-05-28T22:47:55.643Z,11.20
2019-05-28T22:50:43.882Z,11.10
2019-05-28T22:53:32.653Z,11.10
2019-05-28T22:56:20.814Z,11.10
2019-05-28T22:59:08.649Z,11.00
2019-05-28T23:01:56.631Z,11.00
2019-05-28T23:04:44.476Z,10.90
2019-05-28T23:07:32.281Z,10.70
2019-05-28T23:10:20.685Z,10.60
2019-05-28T23:13:09.178Z,10.50
2019-05-28T23:15:57.084Z,10.40
2019-05-28T23:18:45.011Z,10.40
2019-05-28T23:21:32.763Z,10.30
2019-05-28T23:24:20.316Z,10.20
2019-05-28T23:27:08.008Z,10.00
2019-05-28T23:29:56.084Z,9.90
2019-05-28T23:32:43.992Z,9.90
2019-05-28T23:35:31.920Z,9.80
2019-05-28T23:38:19.626Z,9.60
2019-05-28T23:41:07.422Z,9.70
2019-05-28T23:44:01.823Z,9.50
2019-05-28T23:46:44.935Z,9.60
2019-05-28T23:49:33.010Z,9.50
2019-05-28T23:52:20.594Z,9.50
2019-05-28T23:55:09.930Z,9.50
2019-05-28T23:57:57.784Z,9.40
